createdAt,value
2019-05-05T00:01:46.701Z,3.00
2019-05-05T00:04:28.720Z,3.00
2019-05-05T00:06:58.887Z,3.10
2019-05-05T00:09:29.196Z,3.10
2019-05-05T00:12:20.385Z,3.00
2019-05-05T00:15:55.245Z,3.10
2019-05-05T00:18:27.039Z,3.10
2019-05-05T00:20:57.217Z,3.10
2019-05-05T00:23:27.349Z,3.10
2019-05-05T00:25:57.819Z,3.10
2019-05-05T00:28:27.940Z,3.20
2019-05-05T00:30:58.098Z,3.20
2019-05-05T00:33:28.202Z,3.10
2019-05-05T00:35:58.443Z,3.20
2019-05-05T00:38:28.595Z,3.20
2019-05-05T00:43:28.545Z,3.20
2019-05-05T00:46:04.583Z,3.20
2019-05-05T00:48:37.195Z,3.20
2019-05-05T00:51:07.322Z,3.20
2019-05-05T00:53:37.443Z,3.20
2019-05-05T00:56:07.631Z,3.20
2019-05-05T00:58:39.608Z,3.20
2019-05-05T01:01:14.688Z,3.20
2019-05-05T01:03:44.892Z,3.20
2019-05-05T01:06:18.687Z,3.20
2019-05-05T01:08:48.846Z,3.20
2019-05-05T01:11:19.216Z,3.20
2019-05-05T01:13:49.372Z,3.10
2019-05-05T01:16:19.541Z,3.10
2019-05-05T01:18:49.621Z,3.10
2019-05-05T01:21:19.779Z,3.10
2019-05-05T01:23:49.835Z,3.10
2019-05-05T01:26:19.989Z,3.10
2019-05-05T01:28:50.143Z,3.10
2019-05-05T01:31:20.444Z,3.10
2019-05-05T01:34:11.916Z,3.00
2019-05-05T01:36:42.187Z,3.00
2019-05-05T01:39:21.877Z,3.00
2019-05-05T01:41:55.478Z,3.00
2019-05-05T01:44:25.609Z,3.00
2019-05-05T01:46:55.808Z,3.00
2019-05-05T01:49:25.939Z,3.00
2019-05-05T01:51:56.157Z,3.10
2019-05-05T01:54:26.272Z,3.10
2019-05-05T01:56:56.531Z,3.00
2019-05-05T01:59:27.065Z,2.90
2019-05-05T02:01:57.274Z,2.90
2019-05-05T02:04:27.334Z,2.80
2019-05-05T02:06:57.612Z,2.70
2019-05-05T02:09:27.800Z,2.70
2019-05-05T02:11:58.315Z,2.70
2019-05-05T02:14:28.485Z,2.60
2019-05-05T02:16:58.647Z,2.60
2019-05-05T02:19:28.805Z,2.60
2019-05-05T02:21:58.988Z,2.50
2019-05-05T02:24:29.140Z,2.50
2019-05-05T02:26:59.351Z,2.50
2019-05-05T02:29:36.825Z,2.40
2019-05-05T02:32:19.393Z,2.40
2019-05-05T02:34:56.148Z,2.40
2019-05-05T02:37:25.648Z,2.30
2019-05-05T02:39:58.860Z,2.40
2019-05-05T02:42:25.131Z,2.40
2019-05-05T02:44:55.526Z,2.40
2019-05-05T02:47:34.649Z,2.40
2019-05-05T02:50:05.195Z,2.40
2019-05-05T02:52:34.671Z,2.40
2019-05-05T02:55:04.337Z,2.40
2019-05-05T02:57:34.650Z,2.40
2019-05-05T03:00:10.307Z,2.40
2019-05-05T03:02:40.511Z,2.50
2019-05-05T03:05:10.749Z,2.50
2019-05-05T03:07:41.060Z,2.50
2019-05-05T03:10:11.263Z,2.50
2019-05-05T03:12:43.806Z,2.60
2019-05-05T03:15:14.741Z,2.60
2019-05-05T03:17:45.158Z,2.60
2019-05-05T03:20:15.444Z,2.60
2019-05-05T03:22:45.767Z,2.60
2019-05-05T03:27:45.537Z,2.70
2019-05-05T03:30:16.200Z,2.70
2019-05-05T03:32:46.436Z,2.70
2019-05-05T03:35:16.605Z,2.80
2019-05-05T03:37:47.307Z,2.80
2019-05-05T03:40:23.757Z,2.80
2019-05-05T03:42:56.109Z,2.80
2019-05-05T03:45:34.235Z,2.90
2019-05-05T03:48:04.689Z,2.90
2019-05-05T03:50:34.573Z,3.00
2019-05-05T03:53:05.012Z,3.00
2019-05-05T03:55:35.219Z,3.00
2019-05-05T03:58:05.417Z,3.00
2019-05-05T04:01:54.960Z,3.10
2019-05-05T04:04:26.210Z,3.20
2019-05-05T04:06:57.036Z,3.20
2019-05-05T04:09:27.330Z,3.30
2019-05-05T04:11:57.543Z,3.20
2019-05-05T04:14:27.725Z,3.20
2019-05-05T04:18:03.993Z,3.20
2019-05-05T04:20:44.177Z,3.20
2019-05-05T04:23:14.119Z,3.30
2019-05-05T04:25:44.025Z,3.20
2019-05-05T04:28:13.776Z,3.20
2019-05-05T04:30:44.446Z,3.30
2019-05-05T04:33:14.417Z,3.30
2019-05-05T04:35:44.599Z,3.30
2019-05-05T04:38:14.925Z,3.40
2019-05-05T04:40:45.034Z,3.40
2019-05-05T04:43:15.190Z,3.40
2019-05-05T04:45:45.350Z,3.40
2019-05-05T04:48:20.107Z,3.50
2019-05-05T04:51:29.041Z,3.50
2019-05-05T04:54:04.342Z,3.60
2019-05-05T04:56:34.659Z,3.50
2019-05-05T04:59:04.895Z,3.60
2019-05-05T05:01:35.178Z,3.70
2019-05-05T05:04:10.360Z,3.70
2019-05-05T05:06:44.888Z,3.70
2019-05-05T05:09:15.042Z,3.80
2019-05-05T05:11:45.151Z,3.70
2019-05-05T05:14:15.292Z,3.70
2019-05-05T05:19:14.964Z,3.50
2019-05-05T05:21:58.025Z,3.40
2019-05-05T05:24:15.685Z,3.50
2019-05-05T05:26:45.945Z,3.60
2019-05-05T05:29:16.142Z,3.60
2019-05-05T05:31:46.277Z,3.70
2019-05-05T05:34:16.451Z,3.80
2019-05-05T05:36:46.709Z,3.90
2019-05-05T05:39:21.952Z,4.00
2019-05-05T05:41:53.968Z,4.00
2019-05-05T05:44:28.165Z,4.00
2019-05-05T05:47:03.485Z,4.00
2019-05-05T05:49:36.726Z,4.00
2019-05-05T05:54:36.380Z,4.10
2019-05-05T05:57:06.557Z,4.10
2019-05-05T05:59:36.725Z,4.10
2019-05-05T06:02:12.226Z,4.10
2019-05-05T06:04:37.491Z,3.90
2019-05-05T06:07:07.612Z,3.80
2019-05-05T06:09:37.801Z,3.90
2019-05-05T06:12:08.127Z,4.10
2019-05-05T06:14:38.543Z,4.20
2019-05-05T06:17:08.688Z,4.30
2019-05-05T06:19:38.827Z,4.50
2019-05-05T06:22:08.939Z,4.80
2019-05-05T06:24:39.413Z,4.90
2019-05-05T06:29:40.738Z,4.80
2019-05-05T06:32:10.868Z,4.80
2019-05-05T06:34:41.004Z,4.50
2019-05-05T06:37:11.120Z,4.40
2019-05-05T06:39:41.328Z,4.40
2019-05-05T06:42:23.668Z,4.50
2019-05-05T06:44:57.489Z,4.50
2019-05-05T06:47:31.685Z,4.70
2019-05-05T06:50:03.574Z,4.90
2019-05-05T06:52:43.822Z,5.30
2019-05-05T06:55:03.728Z,5.20
2019-05-05T06:57:34.300Z,5.10
2019-05-05T07:00:03.634Z,5.00
2019-05-05T07:02:34.264Z,5.10
2019-05-05T07:05:04.138Z,5.20
2019-05-05T07:07:34.393Z,5.70
2019-05-05T07:10:04.196Z,6.10
2019-05-05T07:12:34.806Z,6.40
2019-05-05T07:15:04.855Z,6.60
2019-05-05T07:17:34.994Z,6.60
2019-05-05T07:20:05.854Z,6.20
2019-05-05T07:22:36.007Z,6.10
2019-05-05T07:25:06.336Z,6.00
2019-05-05T07:27:36.464Z,6.10
2019-05-05T07:32:36.205Z,6.30
2019-05-05T07:35:14.702Z,6.50
2019-05-05T07:37:44.847Z,6.30
2019-05-05T07:40:15.126Z,6.30
2019-05-05T07:42:45.251Z,6.30
2019-05-05T07:45:22.489Z,6.20
2019-05-05T07:47:47.381Z,6.00
2019-05-05T07:50:28.979Z,6.00
2019-05-05T07:52:46.230Z,6.00
2019-05-05T07:55:16.451Z,6.10
2019-05-05T07:57:46.562Z,6.30
2019-05-05T08:00:16.959Z,6.30
2019-05-05T08:02:47.089Z,6.40
2019-05-05T08:05:17.290Z,6.70
2019-05-05T08:07:47.415Z,6.80
2019-05-05T08:10:17.600Z,7.00
2019-05-05T08:12:47.723Z,6.90
2019-05-05T08:15:18.349Z,7.00
2019-05-05T08:17:53.992Z,7.20
2019-05-05T08:20:27.622Z,7.30
2019-05-05T08:22:57.848Z,7.40
2019-05-05T08:25:46.658Z,7.70
2019-05-05T08:28:24.186Z,8.00
2019-05-05T08:33:30.946Z,8.80
2019-05-05T08:36:01.093Z,8.50
2019-05-05T08:38:31.141Z,8.50
2019-05-05T08:41:01.225Z,8.30
2019-05-05T08:43:31.345Z,8.00
2019-05-05T08:46:01.499Z,8.00
2019-05-05T08:48:31.613Z,8.10
2019-05-05T08:51:01.930Z,8.50
2019-05-05T08:53:42.494Z,8.80
2019-05-05T08:56:04.092Z,9.10
2019-05-05T08:58:34.410Z,9.40
2019-05-05T09:01:04.358Z,9.40
2019-05-05T09:03:33.768Z,9.00
2019-05-05T09:08:34.740Z,8.60
2019-05-05T09:11:04.930Z,8.70
2019-05-05T09:13:34.718Z,8.60
2019-05-05T09:16:05.463Z,8.50
2019-05-05T09:18:37.411Z,8.50
2019-05-05T09:21:07.570Z,8.80
2019-05-05T09:23:37.995Z,9.10
2019-05-05T09:26:27.672Z,9.40
2019-05-05T09:29:04.373Z,9.00
2019-05-05T09:31:34.392Z,9.00
2019-05-05T09:36:34.857Z,9.50
2019-05-05T09:39:04.432Z,9.60
2019-05-05T09:41:34.840Z,9.90
2019-05-05T09:44:05.446Z,9.70
2019-05-05T09:46:36.007Z,9.60
2019-05-05T09:49:06.647Z,10.00
2019-05-05T09:51:37.191Z,9.80
2019-05-05T09:54:14.147Z,9.50
2019-05-05T09:56:38.114Z,9.30
2019-05-05T09:59:08.619Z,9.40
2019-05-05T10:01:39.123Z,9.70
2019-05-05T10:04:09.995Z,9.90
2019-05-05T10:06:40.684Z,9.80
2019-05-05T10:09:13.615Z,9.80
2019-05-05T10:11:41.864Z,9.70
2019-05-05T10:14:14.195Z,9.70
2019-05-05T10:19:13.943Z,9.70
2019-05-05T10:21:44.363Z,9.70
2019-05-05T10:24:28.559Z,9.50
2019-05-05T10:26:54.310Z,9.60
2019-05-05T10:31:57.210Z,10.00
2019-05-05T10:34:27.523Z,10.10
2019-05-05T10:36:58.056Z,9.90
2019-05-05T10:39:33.486Z,10.00
2019-05-05T10:42:04.046Z,10.30
2019-05-05T10:44:34.032Z,10.40
2019-05-05T10:47:04.625Z,10.10
2019-05-05T10:52:04.022Z,10.00
2019-05-05T10:54:44.245Z,10.20
2019-05-05T10:57:04.736Z,10.10
2019-05-05T10:59:35.347Z,10.00
2019-05-05T11:02:05.817Z,10.00
2019-05-05T11:04:44.239Z,10.20
2019-05-05T11:07:14.602Z,10.30
2019-05-05T11:09:44.791Z,10.20
2019-05-05T11:12:15.393Z,10.30
2019-05-05T11:14:45.938Z,10.40
2019-05-05T11:17:16.442Z,10.20
2019-05-05T11:22:41.311Z,10.60
2019-05-05T11:25:13.913Z,10.30
2019-05-05T11:27:43.999Z,10.40
2019-05-05T11:30:17.021Z,10.00
2019-05-05T11:32:52.383Z,10.10
2019-05-05T11:35:24.423Z,10.00
2019-05-05T11:37:54.270Z,9.80
2019-05-05T11:40:27.964Z,10.00
2019-05-05T11:42:58.501Z,10.30
2019-05-05T11:45:29.032Z,10.70
2019-05-05T11:48:00.192Z,11.10
2019-05-05T11:50:30.340Z,10.90
2019-05-05T11:53:00.518Z,11.00
2019-05-05T11:55:30.589Z,11.10
2019-05-05T11:58:00.756Z,11.00
2019-05-05T12:00:31.881Z,10.90
2019-05-05T12:03:03.810Z,10.90
2019-05-05T12:05:33.675Z,11.20
2019-05-05T12:08:03.954Z,11.10
2019-05-05T12:10:43.911Z,11.00
2019-05-05T12:13:14.750Z,11.20
2019-05-05T12:15:44.631Z,11.30
2019-05-05T12:18:14.486Z,11.30
2019-05-05T12:20:44.523Z,11.10
2019-05-05T12:23:14.840Z,11.50
2019-05-05T12:26:51.110Z,11.80
2019-05-05T12:29:25.222Z,11.90
2019-05-05T12:31:55.660Z,12.00
2019-05-05T12:34:26.235Z,11.80
2019-05-05T12:39:27.043Z,11.70
2019-05-05T12:41:57.445Z,12.00
2019-05-05T12:44:34.708Z,12.00
2019-05-05T12:49:39.778Z,12.00
2019-05-05T12:52:10.288Z,11.60
2019-05-05T12:54:40.768Z,11.40
2019-05-05T12:57:13.556Z,11.10
2019-05-05T12:59:41.928Z,10.90
2019-05-05T13:02:14.267Z,10.90
2019-05-05T13:07:13.652Z,10.80
2019-05-05T13:09:44.086Z,10.90
2019-05-05T13:12:15.055Z,11.10
2019-05-05T13:17:15.084Z,11.20
2019-05-05T13:19:50.447Z,11.50
2019-05-05T13:22:26.753Z,11.50
2019-05-05T13:25:04.603Z,11.20
2019-05-05T13:27:36.982Z,10.80
2019-05-05T13:30:07.951Z,10.90
2019-05-05T13:32:38.504Z,10.90
2019-05-05T13:35:09.131Z,10.90
2019-05-05T13:37:39.324Z,10.90
2019-05-05T13:40:09.939Z,10.90
2019-05-05T13:42:40.489Z,11.00
2019-05-05T13:45:34.298Z,11.20
2019-05-05T13:50:36.020Z,11.40
2019-05-05T13:53:06.516Z,11.10
2019-05-05T13:55:36.966Z,10.80
2019-05-05T13:58:08.917Z,10.70
2019-05-05T14:00:37.818Z,10.60
2019-05-05T14:03:08.228Z,10.60
2019-05-05T14:08:08.563Z,10.60
2019-05-05T14:10:39.012Z,10.90
2019-05-05T14:13:10.555Z,11.00
2019-05-05T14:15:39.900Z,11.00
2019-05-05T14:18:10.404Z,11.00
2019-05-05T14:20:40.929Z,10.90
2019-05-05T14:23:11.263Z,11.00
2019-05-05T14:25:43.955Z,11.10
2019-05-05T14:28:14.018Z,11.20
2019-05-05T14:30:50.820Z,11.20
2019-05-05T14:33:23.790Z,11.10
2019-05-05T14:35:59.295Z,11.10
2019-05-05T14:38:36.623Z,11.30
2019-05-05T14:41:07.352Z,11.60
2019-05-05T14:46:07.487Z,11.50
2019-05-05T14:48:38.031Z,11.40
2019-05-05T14:51:08.724Z,11.40
2019-05-05T14:53:39.208Z,11.40
2019-05-05T14:56:09.647Z,11.30
2019-05-05T14:58:40.130Z,11.20
2019-05-05T15:01:10.651Z,11.20
2019-05-05T15:03:40.905Z,11.30
2019-05-05T15:06:18.017Z,11.50
2019-05-05T15:08:51.184Z,11.40
2019-05-05T15:11:33.759Z,11.30
2019-05-05T15:14:04.385Z,11.30
2019-05-05T15:16:34.569Z,11.40
2019-05-05T15:19:03.856Z,11.40
2019-05-05T15:21:33.991Z,11.60
2019-05-05T15:24:03.855Z,11.80
2019-05-05T15:26:34.479Z,11.60
2019-05-05T15:29:04.808Z,11.60
2019-05-05T15:31:35.179Z,11.70
2019-05-05T15:34:05.911Z,11.60
2019-05-05T15:36:36.454Z,11.50
2019-05-05T15:39:08.831Z,11.50
2019-05-05T15:41:41.603Z,11.50
2019-05-05T15:44:09.645Z,11.60
2019-05-05T15:46:40.182Z,11.40
2019-05-05T15:49:10.588Z,11.40
2019-05-05T15:51:44.185Z,11.40
2019-05-05T15:54:14.079Z,11.40
2019-05-05T15:56:43.117Z,11.40
2019-05-05T15:59:14.328Z,11.30
2019-05-05T16:01:44.268Z,11.10
2019-05-05T16:04:14.709Z,11.10
2019-05-05T16:06:45.897Z,11.10
2019-05-05T16:09:16.079Z,11.10
2019-05-05T16:11:46.830Z,11.30
2019-05-05T16:14:16.910Z,11.50
2019-05-05T16:16:57.271Z,11.60
2019-05-05T16:19:36.528Z,11.90
2019-05-05T16:22:14.572Z,11.90
2019-05-05T16:24:44.746Z,11.70
2019-05-05T16:27:21.692Z,11.70
2019-05-05T16:29:46.565Z,12.00
2019-05-05T16:32:21.788Z,12.20
2019-05-05T16:34:47.472Z,12.00
2019-05-05T16:37:17.988Z,12.10
2019-05-05T16:39:48.321Z,12.30
2019-05-05T16:42:18.768Z,12.60
2019-05-05T16:44:49.255Z,12.40
2019-05-05T16:47:19.591Z,12.00
2019-05-05T16:49:50.095Z,11.80
2019-05-05T16:52:24.590Z,11.70
2019-05-05T16:54:59.928Z,12.00
2019-05-05T16:57:33.931Z,12.10
2019-05-05T17:00:00.930Z,12.10
2019-05-05T17:02:33.273Z,12.10
2019-05-05T17:05:02.105Z,12.40
2019-05-05T17:07:34.337Z,12.50
2019-05-05T17:10:05.997Z,12.20
2019-05-05T17:12:33.935Z,11.70
2019-05-05T17:16:09.037Z,11.30
2019-05-05T17:18:46.518Z,11.10
2019-05-05T17:21:22.586Z,10.90
2019-05-05T17:23:53.994Z,10.70
2019-05-05T17:26:24.335Z,10.50
2019-05-05T17:28:54.226Z,10.40
2019-05-05T17:31:24.698Z,10.30
2019-05-05T17:33:54.960Z,10.30
2019-05-05T17:36:25.455Z,10.40
2019-05-05T17:38:55.721Z,10.50
2019-05-05T17:41:30.739Z,10.70
2019-05-05T17:46:44.187Z,10.60
2019-05-05T17:49:26.870Z,10.20
2019-05-05T17:52:14.317Z,9.80
2019-05-05T17:54:46.325Z,9.50
2019-05-05T17:59:46.100Z,9.10
2019-05-05T18:02:17.184Z,9.00
2019-05-05T18:04:47.887Z,8.90
2019-05-05T18:07:30.167Z,8.80
2019-05-05T18:10:06.433Z,8.60
2019-05-05T18:13:14.310Z,8.50
2019-05-05T18:15:49.643Z,8.30
2019-05-05T18:18:19.960Z,8.20
2019-05-05T18:20:50.702Z,8.00
2019-05-05T18:23:23.297Z,7.90
2019-05-05T18:25:51.998Z,7.80
2019-05-05T18:28:24.557Z,7.70
2019-05-05T18:30:53.941Z,7.60
2019-05-05T18:33:24.684Z,7.50
2019-05-05T18:35:54.251Z,7.50
2019-05-05T18:38:24.641Z,7.30
2019-05-05T18:40:55.327Z,7.20
2019-05-05T18:43:30.972Z,7.10
2019-05-05T18:46:04.387Z,6.90
2019-05-05T18:48:34.563Z,6.70
2019-05-05T18:51:03.945Z,6.50
2019-05-05T18:53:34.310Z,6.40
2019-05-05T18:56:04.785Z,6.40
2019-05-05T18:58:35.121Z,6.30
2019-05-05T19:01:21.332Z,6.30
2019-05-05T19:03:56.732Z,6.30
2019-05-05T19:06:34.374Z,6.30
2019-05-05T19:09:04.528Z,6.30
2019-05-05T19:11:34.099Z,6.30
2019-05-05T19:14:03.647Z,6.30
2019-05-05T19:16:34.630Z,6.10
2019-05-05T19:19:04.116Z,6.10
2019-05-05T19:21:37.349Z,6.10
2019-05-05T19:24:07.748Z,6.00
2019-05-05T19:26:38.249Z,5.90
2019-05-05T19:29:08.700Z,5.80
2019-05-05T19:31:39.132Z,5.70
2019-05-05T19:34:09.777Z,5.60
2019-05-05T19:36:40.219Z,5.60
2019-05-05T19:39:10.819Z,5.50
2019-05-05T19:41:41.388Z,5.50
2019-05-05T19:44:11.964Z,5.40
2019-05-05T19:46:50.071Z,5.40
2019-05-05T19:49:20.948Z,5.40
2019-05-05T19:51:53.950Z,5.50
2019-05-05T19:56:54.069Z,5.30
2019-05-05T19:59:22.765Z,5.30
2019-05-05T20:01:54.014Z,5.30
2019-05-05T20:04:24.143Z,5.30
2019-05-05T20:06:54.785Z,5.40
2019-05-05T20:09:24.727Z,5.40
2019-05-05T20:11:54.874Z,5.40
2019-05-05T20:14:25.189Z,5.40
2019-05-05T20:17:06.786Z,5.40
2019-05-05T20:19:43.743Z,5.40
2019-05-05T20:22:14.378Z,5.30
2019-05-05T20:24:44.354Z,5.40
2019-05-05T20:27:14.082Z,5.60
2019-05-05T20:29:44.417Z,5.60
2019-05-05T20:32:15.375Z,5.60
2019-05-05T20:34:51.024Z,5.60
2019-05-05T20:37:24.427Z,5.60
2019-05-05T20:39:55.087Z,5.50
2019-05-05T20:42:25.596Z,5.50
2019-05-05T20:44:56.008Z,5.40
2019-05-05T20:47:26.665Z,5.30
2019-05-05T20:49:57.065Z,5.30
2019-05-05T20:52:27.364Z,5.20
2019-05-05T20:54:57.714Z,5.10
2019-05-05T20:57:28.368Z,5.10
2019-05-05T20:59:58.792Z,5.10
2019-05-05T21:02:29.658Z,5.10
2019-05-05T21:05:00.016Z,5.10
2019-05-05T21:07:30.472Z,5.10
2019-05-05T21:10:00.995Z,5.00
2019-05-05T21:12:41.726Z,5.00
2019-05-05T21:15:01.874Z,5.00
2019-05-05T21:17:33.774Z,4.90
2019-05-05T21:20:04.349Z,4.90
2019-05-05T21:22:38.345Z,4.90
2019-05-05T21:25:14.270Z,4.80
2019-05-05T21:27:43.702Z,4.60
2019-05-05T21:30:14.315Z,4.50
2019-05-05T21:32:44.659Z,4.50
2019-05-05T21:35:15.219Z,4.40
2019-05-05T21:37:45.879Z,4.40
2019-05-05T21:40:16.584Z,4.30
2019-05-05T21:42:47.218Z,4.30
2019-05-05T21:45:17.683Z,4.40
2019-05-05T21:47:48.146Z,4.50
2019-05-05T21:50:21.377Z,4.50
2019-05-05T21:52:57.348Z,4.50
2019-05-05T21:55:33.899Z,4.60
2019-05-05T21:58:06.703Z,4.60
2019-05-05T22:00:44.126Z,4.70
2019-05-05T22:03:14.020Z,4.70
2019-05-05T22:05:43.412Z,4.80
2019-05-05T22:08:14.311Z,4.90
2019-05-05T22:10:44.407Z,4.90
2019-05-05T22:13:15.076Z,4.90
2019-05-05T22:15:45.540Z,4.90
2019-05-05T22:18:15.868Z,4.80
2019-05-05T22:20:50.512Z,4.80
2019-05-05T22:23:21.055Z,4.80
2019-05-05T22:25:51.468Z,4.80
2019-05-05T22:28:21.995Z,4.70
2019-05-05T22:30:55.345Z,4.70
2019-05-05T22:33:24.673Z,4.60
2019-05-05T22:35:54.871Z,4.60
2019-05-05T22:40:54.542Z,4.30
2019-05-05T22:43:24.452Z,4.20
2019-05-05T22:45:56.134Z,4.20
2019-05-05T22:48:25.476Z,4.20
2019-05-05T22:50:56.021Z,4.10
2019-05-05T22:53:26.479Z,4.00
2019-05-05T22:55:57.012Z,4.00
2019-05-05T22:58:27.465Z,4.00
2019-05-05T23:00:57.959Z,4.00
2019-05-05T23:03:32.624Z,4.10
2019-05-05T23:06:07.160Z,4.10
2019-05-05T23:08:37.631Z,4.10
2019-05-05T23:11:07.847Z,4.10
2019-05-05T23:13:37.996Z,4.10
2019-05-05T23:16:19.997Z,4.10
2019-05-05T23:18:50.526Z,4.00
2019-05-05T23:21:24.856Z,4.00
2019-05-05T23:26:31.286Z,4.00
2019-05-05T23:29:01.417Z,4.00
2019-05-05T23:31:33.567Z,3.90
2019-05-05T23:34:03.958Z,3.90
2019-05-05T23:36:33.941Z,3.90
2019-05-05T23:39:03.998Z,4.00
2019-05-05T23:41:34.892Z,4.00
2019-05-05T23:44:04.538Z,4.00
2019-05-05T23:46:34.983Z,4.00
2019-05-05T23:49:05.656Z,4.00
2019-05-05T23:51:36.264Z,4.00
2019-05-05T23:54:06.363Z,4.10
2019-05-05T23:56:36.822Z,4.10
2019-05-05T23:59:07.047Z,4.20
